sensor_id;sensor_type;location;lat;lon;timestamp;temperature;humidity
5705;DHT22;2877;48.238;11.160;2023-04-03T00:01:20;2.40;99.90
5705;DHT22;2877;48.238;11.160;2023-04-03T00:03:46;2.40;99.90
5705;DHT22;2877;48.238;11.160;2023-04-03T00:06:12;2.40;99.90
5705;DHT22;2877;48.238;11.160;2023-04-03T00:08:39;2.40;99.90
5705;DHT22;2877;48.238;11.160;2023-04-03T00:11:05;2.40;99.90
5705;DHT22;2877;48.238;11.160;2023-04-03T00:13:32;2.40;99.90
5705;DHT22;2877;48.238;11.160;2023-04-03T00:15:58;2.40;99.90
5705;DHT22;2877;48.238;11.160;2023-04-03T00:18:23;2.40;99.90
5705;DHT22;2877;48.238;11.160;2023-04-03T00:20:49;2.40;99.90
5705;DHT22;2877;48.238;11.160;2023-04-03T00:23:15;2.40;99.90
5705;DHT22;2877;48.238;11.160;2023-04-03T00:25:41;2.40;99.90
5705;DHT22;2877;48.238;11.160;2023-04-03T00:28:07;2.40;99.90
5705;DHT22;2877;48.238;11.160;2023-04-03T00:30:32;2.40;99.90
5705;DHT22;2877;48.238;11.160;2023-04-03T00:32:58;2.40;99.90
5705;DHT22;2877;48.238;11.160;2023-04-03T00:35:24;2.40;99.90
5705;DHT22;2877;48.238;11.160;2023-04-03T00:37:54;2.40;99.90
5705;DHT22;2877;48.238;11.160;2023-04-03T00:40:22;2.30;99.90
5705;DHT22;2877;48.238;11.160;2023-04-03T00:42:51;2.40;99.90
5705;DHT22;2877;48.238;11.160;2023-04-03T00:45:31;2.40;99.90
5705;DHT22;2877;48.238;11.160;2023-04-03T00:47:58;2.30;99.90
5705;DHT22;2877;48.238;11.160;2023-04-03T00:50:26;2.30;99.90
5705;DHT22;2877;48.238;11.160;2023-04-03T00:52:53;2.30;99.90
5705;DHT22;2877;48.238;11.160;2023-04-03T00:55:19;2.30;99.90
5705;DHT22;2877;48.238;11.160;2023-04-03T00:57:45;2.30;99.90
5705;DHT22;2877;48.238;11.160;2023-04-03T01:00:15;2.30;99.90
5705;DHT22;2877;48.238;11.160;2023-04-03T01:02:41;2.30;99.90
5705;DHT22;2877;48.238;11.160;2023-04-03T01:05:07;2.30;99.90
5705;DHT22;2877;48.238;11.160;2023-04-03T01:07:33;2.30;99.90
5705;DHT22;2877;48.238;11.160;2023-04-03T01:10:07;2.30;99.90
5705;DHT22;2877;48.238;11.160;2023-04-03T01:12:36;2.30;99.90
5705;DHT22;2877;48.238;11.160;2023-04-03T01:15:08;2.30;99.90
5705;DHT22;2877;48.238;11.160;2023-04-03T01:22:59;2.30;99.90
5705;DHT22;2877;48.238;11.160;2023-04-03T01:25:25;2.20;99.90
5705;DHT22;2877;48.238;11.160;2023-04-03T01:27:51;2.20;99.90
5705;DHT22;2877;48.238;11.160;2023-04-03T01:30:18;2.20;99.90
5705;DHT22;2877;48.238;11.160;2023-04-03T01:32:44;2.20;99.90
5705;DHT22;2877;48.238;11.160;2023-04-03T01:35:10;2.10;99.90
5705;DHT22;2877;48.238;11.160;2023-04-03T01:37:36;2.10;99.90
5705;DHT22;2877;48.238;11.160;2023-04-03T01:40:03;2.10;99.90
5705;DHT22;2877;48.238;11.160;2023-04-03T01:42:28;2.10;99.90
5705;DHT22;2877;48.238;11.160;2023-04-03T01:44:54;2.10;99.90
5705;DHT22;2877;48.238;11.160;2023-04-03T01:47:20;2.10;99.90
5705;DHT22;2877;48.238;11.160;2023-04-03T01:49:46;2.10;99.90
5705;DHT22;2877;48.238;11.160;2023-04-03T01:52:12;2.10;99.90
5705;DHT22;2877;48.238;11.160;2023-04-03T01:54:37;2.10;99.90
5705;DHT22;2877;48.238;11.160;2023-04-03T01:57:03;2.00;99.90
5705;DHT22;2877;48.238;11.160;2023-04-03T01:59:28;2.00;99.90
5705;DHT22;2877;48.238;11.160;2023-04-03T02:01:54;2.00;99.90
5705;DHT22;2877;48.238;11.160;2023-04-03T02:04:20;2.00;99.90
5705;DHT22;2877;48.238;11.160;2023-04-03T02:06:45;2.00;99.90
5705;DHT22;2877;48.238;11.160;2023-04-03T02:09:11;2.00;99.90
5705;DHT22;2877;48.238;11.160;2023-04-03T02:11:36;2.00;99.90
5705;DHT22;2877;48.238;11.160;2023-04-03T02:14:02;2.00;99.90
5705;DHT22;2877;48.238;11.160;2023-04-03T02:16:28;2.00;99.90
5705;DHT22;2877;48.238;11.160;2023-04-03T02:18:54;2.00;99.90
5705;DHT22;2877;48.238;11.160;2023-04-03T02:21:20;2.00;99.90
5705;DHT22;2877;48.238;11.160;2023-04-03T02:23:45;2.00;99.90
5705;DHT22;2877;48.238;11.160;2023-04-03T02:26:13;2.00;99.90
5705;DHT22;2877;48.238;11.160;2023-04-03T02:28:39;2.00;99.90
5705;DHT22;2877;48.238;11.160;2023-04-03T02:31:05;2.00;99.90
5705;DHT22;2877;48.238;11.160;2023-04-03T02:33:32;2.00;99.90
5705;DHT22;2877;48.238;11.160;2023-04-03T02:35:58;2.00;99.90
5705;DHT22;2877;48.238;11.160;2023-04-03T02:38:24;2.00;99.90
5705;DHT22;2877;48.238;11.160;2023-04-03T02:40:50;2.00;99.90
5705;DHT22;2877;48.238;11.160;2023-04-03T02:43:17;2.00;99.90
5705;DHT22;2877;48.238;11.160;2023-04-03T02:45:43;2.00;99.90
5705;DHT22;2877;48.238;11.160;2023-04-03T02:48:08;2.00;99.90
5705;DHT22;2877;48.238;11.160;2023-04-03T02:50:34;2.00;99.90
5705;DHT22;2877;48.238;11.160;2023-04-03T02:53:00;1.90;99.90
5705;DHT22;2877;48.238;11.160;2023-04-03T02:55:25;2.00;99.90
5705;DHT22;2877;48.238;11.160;2023-04-03T02:57:51;2.00;99.90
5705;DHT22;2877;48.238;11.160;2023-04-03T03:00:17;2.00;99.90
5705;DHT22;2877;48.238;11.160;2023-04-03T03:02:42;2.00;99.90
5705;DHT22;2877;48.238;11.160;2023-04-03T03:05:08;2.00;99.90
5705;DHT22;2877;48.238;11.160;2023-04-03T03:07:34;2.00;99.90
5705;DHT22;2877;48.238;11.160;2023-04-03T03:09:59;2.00;99.90
5705;DHT22;2877;48.238;11.160;2023-04-03T03:12:25;1.90;99.90
5705;DHT22;2877;48.238;11.160;2023-04-03T03:14:50;2.00;99.90
5705;DHT22;2877;48.238;11.160;2023-04-03T03:17:17;2.00;99.90
5705;DHT22;2877;48.238;11.160;2023-04-03T03:19:43;2.00;99.90
5705;DHT22;2877;48.238;11.160;2023-04-03T03:22:09;2.00;99.90
5705;DHT22;2877;48.238;11.160;2023-04-03T03:24:34;2.00;99.90
5705;DHT22;2877;48.238;11.160;2023-04-03T03:27:00;2.00;99.90
5705;DHT22;2877;48.238;11.160;2023-04-03T03:29:25;2.00;99.90
5705;DHT22;2877;48.238;11.160;2023-04-03T03:31:51;2.00;99.90
5705;DHT22;2877;48.238;11.160;2023-04-03T03:34:16;2.00;99.90
5705;DHT22;2877;48.238;11.160;2023-04-03T03:36:42;2.00;99.90
5705;DHT22;2877;48.238;11.160;2023-04-03T03:39:07;2.00;99.90
5705;DHT22;2877;48.238;11.160;2023-04-03T03:41:33;2.00;99.90
5705;DHT22;2877;48.238;11.160;2023-04-03T03:43:58;2.00;99.90
5705;DHT22;2877;48.238;11.160;2023-04-03T03:46:24;2.00;99.90
5705;DHT22;2877;48.238;11.160;2023-04-03T03:48:50;2.00;99.90
5705;DHT22;2877;48.238;11.160;2023-04-03T03:51:15;2.00;99.90
5705;DHT22;2877;48.238;11.160;2023-04-03T03:53:41;2.00;99.90
5705;DHT22;2877;48.238;11.160;2023-04-03T03:56:07;2.00;99.90
5705;DHT22;2877;48.238;11.160;2023-04-03T03:58:33;2.00;99.90
5705;DHT22;2877;48.238;11.160;2023-04-03T04:01:04;2.00;99.90
5705;DHT22;2877;48.238;11.160;2023-04-03T04:03:30;2.00;99.90
5705;DHT22;2877;48.238;11.160;2023-04-03T04:05:56;1.90;99.90
5705;DHT22;2877;48.238;11.160;2023-04-03T04:08:22;1.90;99.90
5705;DHT22;2877;48.238;11.160;2023-04-03T04:10:47;1.90;99.90
5705;DHT22;2877;48.238;11.160;2023-04-03T04:13:13;1.80;99.90
5705;DHT22;2877;48.238;11.160;2023-04-03T04:15:38;1.90;99.90
5705;DHT22;2877;48.238;11.160;2023-04-03T04:18:04;1.90;99.90
5705;DHT22;2877;48.238;11.160;2023-04-03T04:20:29;1.90;99.90
5705;DHT22;2877;48.238;11.160;2023-04-03T04:22:55;1.90;99.90
5705;DHT22;2877;48.238;11.160;2023-04-03T04:25:20;1.90;99.90
5705;DHT22;2877;48.238;11.160;2023-04-03T04:27:46;1.90;99.90
5705;DHT22;2877;48.238;11.160;2023-04-03T04:30:12;1.90;99.90
5705;DHT22;2877;48.238;11.160;2023-04-03T04:32:38;1.90;99.90
5705;DHT22;2877;48.238;11.160;2023-04-03T04:35:04;1.90;99.90
5705;DHT22;2877;48.238;11.160;2023-04-03T04:37:30;1.90;99.90
5705;DHT22;2877;48.238;11.160;2023-04-03T04:39:55;1.90;99.90
5705;DHT22;2877;48.238;11.160;2023-04-03T04:42:21;1.90;99.90
5705;DHT22;2877;48.238;11.160;2023-04-03T04:44:46;1.90;99.90
5705;DHT22;2877;48.238;11.160;2023-04-03T04:47:12;1.90;99.90
5705;DHT22;2877;48.238;11.160;2023-04-03T04:49:37;1.90;99.90
5705;DHT22;2877;48.238;11.160;2023-04-03T04:52:03;1.90;99.90
5705;DHT22;2877;48.238;11.160;2023-04-03T04:54:29;1.90;99.90
5705;DHT22;2877;48.238;11.160;2023-04-03T04:56:54;1.90;99.90
5705;DHT22;2877;48.238;11.160;2023-04-03T04:59:20;1.90;99.90
5705;DHT22;2877;48.238;11.160;2023-04-03T05:01:45;1.90;99.90
5705;DHT22;2877;48.238;11.160;2023-04-03T05:04:11;1.90;99.90
5705;DHT22;2877;48.238;11.160;2023-04-03T05:06:38;1.90;99.90
5705;DHT22;2877;48.238;11.160;2023-04-03T05:09:03;1.80;99.90
5705;DHT22;2877;48.238;11.160;2023-04-03T05:11:29;1.90;99.90
5705;DHT22;2877;48.238;11.160;2023-04-03T05:13:55;1.80;99.90
5705;DHT22;2877;48.238;11.160;2023-04-03T05:16:20;1.90;99.90
5705;DHT22;2877;48.238;11.160;2023-04-03T05:18:46;1.90;99.90
5705;DHT22;2877;48.238;11.160;2023-04-03T05:21:11;1.90;99.90
5705;DHT22;2877;48.238;11.160;2023-04-03T05:23:37;1.90;99.90
5705;DHT22;2877;48.238;11.160;2023-04-03T05:26:03;1.90;99.90
5705;DHT22;2877;48.238;11.160;2023-04-03T05:28:28;1.90;99.90
5705;DHT22;2877;48.238;11.160;2023-04-03T05:30:58;1.90;99.90
5705;DHT22;2877;48.238;11.160;2023-04-03T05:33:24;1.90;99.90
5705;DHT22;2877;48.238;11.160;2023-04-03T05:35:51;2.00;99.90
5705;DHT22;2877;48.238;11.160;2023-04-03T05:38:17;2.00;99.90
5705;DHT22;2877;48.238;11.160;2023-04-03T05:40:43;2.00;99.90
5705;DHT22;2877;48.238;11.160;2023-04-03T05:43:08;2.00;99.90
5705;DHT22;2877;48.238;11.160;2023-04-03T05:45:34;2.00;99.90
5705;DHT22;2877;48.238;11.160;2023-04-03T05:47:59;2.00;99.90
5705;DHT22;2877;48.238;11.160;2023-04-03T05:50:25;2.00;99.90
5705;DHT22;2877;48.238;11.160;2023-04-03T05:52:52;2.10;99.90
5705;DHT22;2877;48.238;11.160;2023-04-03T05:55:20;2.10;99.90
5705;DHT22;2877;48.238;11.160;2023-04-03T05:57:45;2.10;99.90
5705;DHT22;2877;48.238;11.160;2023-04-03T06:00:13;2.10;99.90
5705;DHT22;2877;48.238;11.160;2023-04-03T06:02:41;2.20;99.90
5705;DHT22;2877;48.238;11.160;2023-04-03T06:05:07;2.20;99.90
5705;DHT22;2877;48.238;11.160;2023-04-03T06:07:34;2.20;99.90
5705;DHT22;2877;48.238;11.160;2023-04-03T06:09:59;2.20;99.90
5705;DHT22;2877;48.238;11.160;2023-04-03T06:12:25;2.20;99.90
5705;DHT22;2877;48.238;11.160;2023-04-03T06:14:51;2.20;99.90
5705;DHT22;2877;48.238;11.160;2023-04-03T06:17:17;2.30;99.90
5705;DHT22;2877;48.238;11.160;2023-04-03T06:19:44;2.20;99.90
5705;DHT22;2877;48.238;11.160;2023-04-03T06:22:09;2.30;99.90
5705;DHT22;2877;48.238;11.160;2023-04-03T06:24:37;2.30;99.90
5705;DHT22;2877;48.238;11.160;2023-04-03T06:27:03;2.40;99.90
5705;DHT22;2877;48.238;11.160;2023-04-03T06:29:29;2.50;99.90
5705;DHT22;2877;48.238;11.160;2023-04-03T06:31:54;2.50;99.90
5705;DHT22;2877;48.238;11.160;2023-04-03T06:34:20;2.50;99.90
5705;DHT22;2877;48.238;11.160;2023-04-03T06:36:46;2.50;99.90
5705;DHT22;2877;48.238;11.160;2023-04-03T06:39:18;2.50;99.90
5705;DHT22;2877;48.238;11.160;2023-04-03T06:41:46;2.60;99.90
5705;DHT22;2877;48.238;11.160;2023-04-03T06:44:11;2.60;99.90
5705;DHT22;2877;48.238;11.160;2023-04-03T06:46:38;2.60;99.90
5705;DHT22;2877;48.238;11.160;2023-04-03T06:49:04;2.70;99.90
5705;DHT22;2877;48.238;11.160;2023-04-03T06:51:33;2.80;99.90
5705;DHT22;2877;48.238;11.160;2023-04-03T06:53:59;2.90;99.90
5705;DHT22;2877;48.238;11.160;2023-04-03T06:56:25;3.00;99.90
5705;DHT22;2877;48.238;11.160;2023-04-03T06:58:52;3.10;99.90
5705;DHT22;2877;48.238;11.160;2023-04-03T07:01:19;3.10;99.90
5705;DHT22;2877;48.238;11.160;2023-04-03T07:03:46;3.20;99.90
5705;DHT22;2877;48.238;11.160;2023-04-03T07:06:14;3.20;99.90
5705;DHT22;2877;48.238;11.160;2023-04-03T07:08:40;3.30;99.90
5705;DHT22;2877;48.238;11.160;2023-04-03T07:11:06;3.40;99.90
5705;DHT22;2877;48.238;11.160;2023-04-03T07:13:32;3.50;99.90
5705;DHT22;2877;48.238;11.160;2023-04-03T07:15:58;3.50;99.90
5705;DHT22;2877;48.238;11.160;2023-04-03T07:18:24;3.50;99.90
5705;DHT22;2877;48.238;11.160;2023-04-03T07:20:50;3.50;99.90
5705;DHT22;2877;48.238;11.160;2023-04-03T07:23:15;3.60;99.90
5705;DHT22;2877;48.238;11.160;2023-04-03T07:25:49;3.60;99.90
5705;DHT22;2877;48.238;11.160;2023-04-03T07:28:16;3.70;99.90
5705;DHT22;2877;48.238;11.160;2023-04-03T07:30:47;3.70;99.90
5705;DHT22;2877;48.238;11.160;2023-04-03T07:33:14;3.70;99.90
5705;DHT22;2877;48.238;11.160;2023-04-03T07:35:41;3.70;99.90
5705;DHT22;2877;48.238;11.160;2023-04-03T07:38:07;3.90;99.90
5705;DHT22;2877;48.238;11.160;2023-04-03T07:40:33;4.00;99.90
5705;DHT22;2877;48.238;11.160;2023-04-03T07:42:59;3.90;99.90
5705;DHT22;2877;48.238;11.160;2023-04-03T07:45:25;3.90;99.90
5705;DHT22;2877;48.238;11.160;2023-04-03T07:47:50;3.90;99.90
5705;DHT22;2877;48.238;11.160;2023-04-03T07:50:17;3.80;99.90
5705;DHT22;2877;48.238;11.160;2023-04-03T07:52:42;3.90;99.90
5705;DHT22;2877;48.238;11.160;2023-04-03T07:55:08;3.90;99.90
5705;DHT22;2877;48.238;11.160;2023-04-03T07:57:34;4.00;99.90
5705;DHT22;2877;48.238;11.160;2023-04-03T08:00:02;3.90;99.90
5705;DHT22;2877;48.238;11.160;2023-04-03T08:02:28;3.90;99.90
5705;DHT22;2877;48.238;11.160;2023-04-03T08:04:53;3.90;99.90
5705;DHT22;2877;48.238;11.160;2023-04-03T08:07:19;4.00;99.90
5705;DHT22;2877;48.238;11.160;2023-04-03T08:09:44;4.10;99.90
5705;DHT22;2877;48.238;11.160;2023-04-03T08:12:10;4.10;99.90
5705;DHT22;2877;48.238;11.160;2023-04-03T08:14:36;4.20;99.90
5705;DHT22;2877;48.238;11.160;2023-04-03T08:17:03;4.20;99.90
5705;DHT22;2877;48.238;11.160;2023-04-03T08:19:30;4.30;99.90
5705;DHT22;2877;48.238;11.160;2023-04-03T08:21:56;4.30;99.90
5705;DHT22;2877;48.238;11.160;2023-04-03T08:24:24;4.40;99.90
5705;DHT22;2877;48.238;11.160;2023-04-03T08:26:49;4.40;99.90
5705;DHT22;2877;48.238;11.160;2023-04-03T08:29:15;4.40;99.90
5705;DHT22;2877;48.238;11.160;2023-04-03T08:31:40;4.60;99.90
5705;DHT22;2877;48.238;11.160;2023-04-03T08:34:06;4.60;99.90
5705;DHT22;2877;48.238;11.160;2023-04-03T08:36:31;4.60;99.90
5705;DHT22;2877;48.238;11.160;2023-04-03T08:38:57;4.50;99.90
5705;DHT22;2877;48.238;11.160;2023-04-03T08:44:14;4.50;99.90
5705;DHT22;2877;48.238;11.160;2023-04-03T08:49:49;5.00;99.90
5705;DHT22;2877;48.238;11.160;2023-04-03T08:52:32;5.10;99.90
5705;DHT22;2877;48.238;11.160;2023-04-03T08:55:07;5.20;99.90
5705;DHT22;2877;48.238;11.160;2023-04-03T08:57:36;5.20;99.90
5705;DHT22;2877;48.238;11.160;2023-04-03T09:00:13;5.30;99.90
5705;DHT22;2877;48.238;11.160;2023-04-03T09:02:44;5.40;99.90
5705;DHT22;2877;48.238;11.160;2023-04-03T09:05:13;5.30;99.90
5705;DHT22;2877;48.238;11.160;2023-04-03T09:07:44;5.30;99.90
5705;DHT22;2877;48.238;11.160;2023-04-03T09:10:13;5.30;99.90
5705;DHT22;2877;48.238;11.160;2023-04-03T09:12:42;5.40;99.90
5705;DHT22;2877;48.238;11.160;2023-04-03T09:21:13;5.50;99.90
5705;DHT22;2877;48.238;11.160;2023-04-03T09:23:43;5.60;99.90
5705;DHT22;2877;48.238;11.160;2023-04-03T09:29:04;5.60;99.90
5705;DHT22;2877;48.238;11.160;2023-04-03T09:31:40;5.60;99.90
5705;DHT22;2877;48.238;11.160;2023-04-03T09:34:13;5.60;99.90
5705;DHT22;2877;48.238;11.160;2023-04-03T09:36:46;5.80;99.90
5705;DHT22;2877;48.238;11.160;2023-04-03T09:39:18;6.10;99.90
5705;DHT22;2877;48.238;11.160;2023-04-03T09:42:03;6.10;99.90
5705;DHT22;2877;48.238;11.160;2023-04-03T09:44:34;6.00;99.90
5705;DHT22;2877;48.238;11.160;2023-04-03T09:47:32;5.90;99.90
5705;DHT22;2877;48.238;11.160;2023-04-03T09:50:18;5.60;99.90
5705;DHT22;2877;48.238;11.160;2023-04-03T09:52:48;5.50;99.90
5705;DHT22;2877;48.238;11.160;2023-04-03T09:55:16;5.60;99.90
5705;DHT22;2877;48.238;11.160;2023-04-03T09:57:42;5.70;99.90
5705;DHT22;2877;48.238;11.160;2023-04-03T10:00:36;5.50;99.90
5705;DHT22;2877;48.238;11.160;2023-04-03T10:03:03;5.50;99.90
5705;DHT22;2877;48.238;11.160;2023-04-03T10:10:48;5.50;99.90
5705;DHT22;2877;48.238;11.160;2023-04-03T10:13:29;5.60;99.90
5705;DHT22;2877;48.238;11.160;2023-04-03T10:16:07;5.80;99.90
5705;DHT22;2877;48.238;11.160;2023-04-03T10:21:48;6.10;99.90
5705;DHT22;2877;48.238;11.160;2023-04-03T10:24:25;6.00;99.90
5705;DHT22;2877;48.238;11.160;2023-04-03T10:27:01;5.70;99.90
5705;DHT22;2877;48.238;11.160;2023-04-03T10:30:34;5.60;99.90
5705;DHT22;2877;48.238;11.160;2023-04-03T10:35:34;5.30;99.90
5705;DHT22;2877;48.238;11.160;2023-04-03T10:38:20;5.30;99.90
5705;DHT22;2877;48.238;11.160;2023-04-03T10:41:02;5.20;99.90
5705;DHT22;2877;48.238;11.160;2023-04-03T10:44:15;5.20;99.90
5705;DHT22;2877;48.238;11.160;2023-04-03T10:46:47;5.20;99.90
5705;DHT22;2877;48.238;11.160;2023-04-03T10:51:57;5.30;99.90
5705;DHT22;2877;48.238;11.160;2023-04-03T10:54:40;5.30;99.90
5705;DHT22;2877;48.238;11.160;2023-04-03T10:57:09;5.40;99.90
5705;DHT22;2877;48.238;11.160;2023-04-03T10:59:49;5.50;99.90
5705;DHT22;2877;48.238;11.160;2023-04-03T11:03:23;5.60;99.90
5705;DHT22;2877;48.238;11.160;2023-04-03T11:05:42;5.70;99.90
5705;DHT22;2877;48.238;11.160;2023-04-03T11:11:17;5.90;99.90
5705;DHT22;2877;48.238;11.160;2023-04-03T11:14:02;5.70;99.90
5705;DHT22;2877;48.238;11.160;2023-04-03T11:16:30;5.60;99.90
5705;DHT22;2877;48.238;11.160;2023-04-03T11:19:05;5.40;99.90
5705;DHT22;2877;48.238;11.160;2023-04-03T11:21:46;5.40;99.90
5705;DHT22;2877;48.238;11.160;2023-04-03T11:24:23;5.60;99.90
5705;DHT22;2877;48.238;11.160;2023-04-03T11:26:51;5.60;99.90
5705;DHT22;2877;48.238;11.160;2023-04-03T11:29:24;5.70;99.90
5705;DHT22;2877;48.238;11.160;2023-04-03T11:34:46;5.80;99.90
5705;DHT22;2877;48.238;11.160;2023-04-03T11:40:30;5.70;99.90
5705;DHT22;2877;48.238;11.160;2023-04-03T11:43:22;5.70;99.90
5705;DHT22;2877;48.238;11.160;2023-04-03T11:46:05;5.80;99.90
5705;DHT22;2877;48.238;11.160;2023-04-03T11:51:02;6.20;99.90
5705;DHT22;2877;48.238;11.160;2023-04-03T11:53:47;6.30;99.90
5705;DHT22;2877;48.238;11.160;2023-04-03T12:01:49;6.30;99.90
5705;DHT22;2877;48.238;11.160;2023-04-03T12:04:16;5.70;99.90
5705;DHT22;2877;48.238;11.160;2023-04-03T12:06:49;5.20;99.90
5705;DHT22;2877;48.238;11.160;2023-04-03T12:11:53;4.90;99.90
5705;DHT22;2877;48.238;11.160;2023-04-03T12:14:23;4.90;99.90
5705;DHT22;2877;48.238;11.160;2023-04-03T12:16:53;5.00;99.90
5705;DHT22;2877;48.238;11.160;2023-04-03T12:19:39;5.00;99.90
5705;DHT22;2877;48.238;11.160;2023-04-03T12:22:10;5.20;99.90
5705;DHT22;2877;48.238;11.160;2023-04-03T12:24:39;5.50;99.90
5705;DHT22;2877;48.238;11.160;2023-04-03T12:35:31;6.00;99.90
5705;DHT22;2877;48.238;11.160;2023-04-03T12:41:01;6.00;98.50
5705;DHT22;2877;48.238;11.160;2023-04-03T12:48:51;6.40;98.50
5705;DHT22;2877;48.238;11.160;2023-04-03T12:51:26;6.60;96.40
5705;DHT22;2877;48.238;11.160;2023-04-03T12:54:00;6.70;96.90
5705;DHT22;2877;48.238;11.160;2023-04-03T12:56:31;6.90;95.80
5705;DHT22;2877;48.238;11.160;2023-04-03T12:59:33;7.20;96.90
5705;DHT22;2877;48.238;11.160;2023-04-03T13:02:00;7.30;92.70
5705;DHT22;2877;48.238;11.160;2023-04-03T13:04:31;7.90;92.40
5705;DHT22;2877;48.238;11.160;2023-04-03T13:06:57;9.00;89.10
5705;DHT22;2877;48.238;11.160;2023-04-03T13:09:28;9.10;85.60
5705;DHT22;2877;48.238;11.160;2023-04-03T13:12:10;9.40;83.20
5705;DHT22;2877;48.238;11.160;2023-04-03T13:14:37;9.50;76.80
5705;DHT22;2877;48.238;11.160;2023-04-03T13:17:16;9.60;76.00
5705;DHT22;2877;48.238;11.160;2023-04-03T13:19:43;10.10;76.10
5705;DHT22;2877;48.238;11.160;2023-04-03T13:22:29;10.30;70.90
5705;DHT22;2877;48.238;11.160;2023-04-03T13:25:00;10.00;71.10
5705;DHT22;2877;48.238;11.160;2023-04-03T13:27:29;9.80;69.80
5705;DHT22;2877;48.238;11.160;2023-04-03T13:29:57;9.00;72.40
5705;DHT22;2877;48.238;11.160;2023-04-03T13:32:26;8.70;75.40
5705;DHT22;2877;48.238;11.160;2023-04-03T13:34:52;8.70;73.80
5705;DHT22;2877;48.238;11.160;2023-04-03T13:37:30;9.00;74.80
5705;DHT22;2877;48.238;11.160;2023-04-03T13:42:36;9.60;71.90
5705;DHT22;2877;48.238;11.160;2023-04-03T13:45:29;9.70;68.30
5705;DHT22;2877;48.238;11.160;2023-04-03T13:51:00;10.50;68.50
5705;DHT22;2877;48.238;11.160;2023-04-03T13:53:27;10.00;68.20
5705;DHT22;2877;48.238;11.160;2023-04-03T13:58:30;7.70;73.80
5705;DHT22;2877;48.238;11.160;2023-04-03T14:01:19;7.20;74.50
5705;DHT22;2877;48.238;11.160;2023-04-03T14:03:47;6.80;73.60
5705;DHT22;2877;48.238;11.160;2023-04-03T14:06:17;6.70;76.60
5705;DHT22;2877;48.238;11.160;2023-04-03T14:08:44;6.60;76.60
5705;DHT22;2877;48.238;11.160;2023-04-03T14:11:14;6.70;74.00
5705;DHT22;2877;48.238;11.160;2023-04-03T14:13:42;6.80;74.70
5705;DHT22;2877;48.238;11.160;2023-04-03T14:16:11;6.90;74.50
5705;DHT22;2877;48.238;11.160;2023-04-03T14:18:37;6.90;75.10
5705;DHT22;2877;48.238;11.160;2023-04-03T14:21:02;6.90;71.00
5705;DHT22;2877;48.238;11.160;2023-04-03T14:23:28;6.70;71.30
5705;DHT22;2877;48.238;11.160;2023-04-03T14:25:53;6.60;71.30
5705;DHT22;2877;48.238;11.160;2023-04-03T14:28:21;6.70;71.40
5705;DHT22;2877;48.238;11.160;2023-04-03T14:30:49;6.80;73.00
5705;DHT22;2877;48.238;11.160;2023-04-03T14:33:18;7.10;72.10
5705;DHT22;2877;48.238;11.160;2023-04-03T14:35:44;7.30;70.20
5705;DHT22;2877;48.238;11.160;2023-04-03T14:38:26;7.40;69.70
5705;DHT22;2877;48.238;11.160;2023-04-03T14:40:54;7.70;69.80
5705;DHT22;2877;48.238;11.160;2023-04-03T14:43:20;7.90;65.90
5705;DHT22;2877;48.238;11.160;2023-04-03T14:45:48;8.00;65.80
5705;DHT22;2877;48.238;11.160;2023-04-03T14:48:22;7.90;64.40
5705;DHT22;2877;48.238;11.160;2023-04-03T14:50:49;7.90;67.60
5705;DHT22;2877;48.238;11.160;2023-04-03T14:53:16;7.80;67.20
5705;DHT22;2877;48.238;11.160;2023-04-03T14:55:44;7.70;67.60
5705;DHT22;2877;48.238;11.160;2023-04-03T14:58:16;7.50;66.70
5705;DHT22;2877;48.238;11.160;2023-04-03T15:00:42;7.30;67.70
5705;DHT22;2877;48.238;11.160;2023-04-03T15:03:19;7.40;64.70
5705;DHT22;2877;48.238;11.160;2023-04-03T15:05:47;7.30;66.20
5705;DHT22;2877;48.238;11.160;2023-04-03T15:08:19;7.10;66.70
5705;DHT22;2877;48.238;11.160;2023-04-03T15:10:45;7.00;64.60
5705;DHT22;2877;48.238;11.160;2023-04-03T15:13:12;7.20;67.30
5705;DHT22;2877;48.238;11.160;2023-04-03T15:15:37;7.50;66.70
5705;DHT22;2877;48.238;11.160;2023-04-03T15:18:03;7.40;62.90
5705;DHT22;2877;48.238;11.160;2023-04-03T15:20:29;7.30;63.20
5705;DHT22;2877;48.238;11.160;2023-04-03T15:22:59;7.20;66.00
5705;DHT22;2877;48.238;11.160;2023-04-03T15:25:29;7.00;63.30
5705;DHT22;2877;48.238;11.160;2023-04-03T15:27:56;6.80;63.90
5705;DHT22;2877;48.238;11.160;2023-04-03T15:30:22;6.60;63.70
5705;DHT22;2877;48.238;11.160;2023-04-03T15:32:48;6.40;64.30
5705;DHT22;2877;48.238;11.160;2023-04-03T15:35:14;6.40;64.50
5705;DHT22;2877;48.238;11.160;2023-04-03T15:37:39;6.30;67.10
5705;DHT22;2877;48.238;11.160;2023-04-03T15:40:06;6.20;66.40
5705;DHT22;2877;48.238;11.160;2023-04-03T15:42:32;6.10;66.60
5705;DHT22;2877;48.238;11.160;2023-04-03T15:44:58;5.90;67.50
5705;DHT22;2877;48.238;11.160;2023-04-03T15:47:25;5.80;69.20
5705;DHT22;2877;48.238;11.160;2023-04-03T15:49:51;5.80;68.30
5705;DHT22;2877;48.238;11.160;2023-04-03T15:52:16;5.90;68.00
5705;DHT22;2877;48.238;11.160;2023-04-03T15:54:42;6.00;66.20
5705;DHT22;2877;48.238;11.160;2023-04-03T15:57:07;6.10;64.80
5705;DHT22;2877;48.238;11.160;2023-04-03T15:59:33;6.20;65.10
5705;DHT22;2877;48.238;11.160;2023-04-03T16:01:59;6.20;62.70
5705;DHT22;2877;48.238;11.160;2023-04-03T16:04:27;6.20;64.60
5705;DHT22;2877;48.238;11.160;2023-04-03T16:06:53;6.10;63.90
5705;DHT22;2877;48.238;11.160;2023-04-03T16:09:19;5.90;63.20
5705;DHT22;2877;48.238;11.160;2023-04-03T16:11:44;5.90;65.40
5705;DHT22;2877;48.238;11.160;2023-04-03T16:14:10;5.80;67.10
5705;DHT22;2877;48.238;11.160;2023-04-03T16:16:36;5.70;67.70
5705;DHT22;2877;48.238;11.160;2023-04-03T16:19:03;5.50;66.90
5705;DHT22;2877;48.238;11.160;2023-04-03T16:21:28;5.50;68.20
5705;DHT22;2877;48.238;11.160;2023-04-03T16:23:59;5.40;68.30
5705;DHT22;2877;48.238;11.160;2023-04-03T16:26:26;5.30;68.50
5705;DHT22;2877;48.238;11.160;2023-04-03T16:28:53;5.30;69.30
5705;DHT22;2877;48.238;11.160;2023-04-03T16:31:19;5.40;70.90
5705;DHT22;2877;48.238;11.160;2023-04-03T16:33:44;5.70;66.50
5705;DHT22;2877;48.238;11.160;2023-04-03T16:36:10;6.20;64.70
5705;DHT22;2877;48.238;11.160;2023-04-03T16:38:36;7.00;65.10
5705;DHT22;2877;48.238;11.160;2023-04-03T16:41:02;7.80;62.20
5705;DHT22;2877;48.238;11.160;2023-04-03T16:43:30;7.90;60.70
5705;DHT22;2877;48.238;11.160;2023-04-03T16:45:56;7.20;62.50
5705;DHT22;2877;48.238;11.160;2023-04-03T16:48:22;6.50;63.90
5705;DHT22;2877;48.238;11.160;2023-04-03T16:50:48;5.80;66.60
5705;DHT22;2877;48.238;11.160;2023-04-03T16:53:14;5.50;66.70
5705;DHT22;2877;48.238;11.160;2023-04-03T16:55:40;5.30;66.30
5705;DHT22;2877;48.238;11.160;2023-04-03T16:58:06;5.20;67.30
5705;DHT22;2877;48.238;11.160;2023-04-03T17:00:32;5.20;68.00
5705;DHT22;2877;48.238;11.160;2023-04-03T17:02:58;5.00;67.90
5705;DHT22;2877;48.238;11.160;2023-04-03T17:05:23;4.80;69.60
5705;DHT22;2877;48.238;11.160;2023-04-03T17:07:50;4.50;70.20
5705;DHT22;2877;48.238;11.160;2023-04-03T17:10:15;4.30;70.50
5705;DHT22;2877;48.238;11.160;2023-04-03T17:12:41;4.10;72.40
5705;DHT22;2877;48.238;11.160;2023-04-03T17:15:07;4.00;72.10
5705;DHT22;2877;48.238;11.160;2023-04-03T17:17:33;3.90;71.50
5705;DHT22;2877;48.238;11.160;2023-04-03T17:19:58;3.70;73.10
5705;DHT22;2877;48.238;11.160;2023-04-03T17:22:24;4.20;71.40
5705;DHT22;2877;48.238;11.160;2023-04-03T17:24:50;5.00;69.60
5705;DHT22;2877;48.238;11.160;2023-04-03T17:27:16;5.70;67.00
5705;DHT22;2877;48.238;11.160;2023-04-03T17:29:41;6.10;65.70